sensor_id;sensor_type;location;lat;lon;timestamp;P1;durP1;ratioP1;P2;durP2;ratioP2
44130;SDS011;29792;48.726;9.248;2022-08-21T00:02:13;1.52;;;1.42;;
44130;SDS011;29792;48.726;9.248;2022-08-21T00:04:43;3.10;;;1.92;;
44130;SDS011;29792;48.726;9.248;2022-08-21T00:07:08;2.28;;;1.50;;
44130;SDS011;29792;48.726;9.248;2022-08-21T00:09:34;2.13;;;1.20;;
44130;SDS011;29792;48.726;9.248;2022-08-21T00:11:59;3.47;;;1.60;;
44130;SDS011;29792;48.726;9.248;2022-08-21T00:14:24;2.45;;;1.77;;
44130;SDS011;29792;48.726;9.248;2022-08-21T00:16:50;2.55;;;1.70;;
44130;SDS011;29792;48.726;9.248;2022-08-21T00:19:15;3.85;;;1.70;;
44130;SDS011;29792;48.726;9.248;2022-08-21T00:21:40;6.65;;;2.63;;
44130;SDS011;29792;48.726;9.248;2022-08-21T00:24:06;2.10;;;1.38;;
44130;SDS011;29792;48.726;9.248;2022-08-21T00:26:31;4.32;;;2.00;;
44130;SDS011;29792;48.726;9.248;2022-08-21T00:28:56;1.55;;;1.00;;
44130;SDS011;29792;48.726;9.248;2022-08-21T00:31:22;2.08;;;1.88;;
44130;SDS011;29792;48.726;9.248;2022-08-21T00:33:47;1.50;;;1.40;;
44130;SDS011;29792;48.726;9.248;2022-08-21T00:36:12;3.72;;;1.52;;
44130;SDS011;29792;48.726;9.248;2022-08-21T00:38:38;1.50;;;1.20;;
44130;SDS011;29792;48.726;9.248;2022-08-21T00:41:05;3.78;;;2.33;;
44130;SDS011;29792;48.726;9.248;2022-08-21T00:43:33;3.28;;;2.08;;
44130;SDS011;29792;48.726;9.248;2022-08-21T00:46:00;2.97;;;1.42;;
44130;SDS011;29792;48.726;9.248;2022-08-21T00:48:25;3.65;;;1.48;;
44130;SDS011;29792;48.726;9.248;2022-08-21T00:53:26;3.28;;;1.60;;
44130;SDS011;29792;48.726;9.248;2022-08-21T00:55:55;3.03;;;1.73;;
44130;SDS011;29792;48.726;9.248;2022-08-21T00:58:22;2.53;;;1.23;;
44130;SDS011;29792;48.726;9.248;2022-08-21T01:00:48;2.33;;;1.90;;
44130;SDS011;29792;48.726;9.248;2022-08-21T01:03:16;3.00;;;1.48;;
44130;SDS011;29792;48.726;9.248;2022-08-21T01:05:44;1.98;;;1.50;;
44130;SDS011;29792;48.726;9.248;2022-08-21T01:08:11;1.85;;;1.33;;
44130;SDS011;29792;48.726;9.248;2022-08-21T01:10:39;2.78;;;1.65;;
44130;SDS011;29792;48.726;9.248;2022-08-21T01:13:06;2.50;;;2.17;;
44130;SDS011;29792;48.726;9.248;2022-08-21T01:15:36;2.75;;;1.67;;
44130;SDS011;29792;48.726;9.248;2022-08-21T01:18:04;2.15;;;1.60;;
44130;SDS011;29792;48.726;9.248;2022-08-21T01:20:32;4.75;;;2.42;;
44130;SDS011;29792;48.726;9.248;2022-08-21T01:22:57;2.70;;;1.60;;
44130;SDS011;29792;48.726;9.248;2022-08-21T01:25:23;3.75;;;2.03;;
44130;SDS011;29792;48.726;9.248;2022-08-21T01:27:48;2.30;;;1.63;;
44130;SDS011;29792;48.726;9.248;2022-08-21T01:30:16;5.30;;;2.28;;
44130;SDS011;29792;48.726;9.248;2022-08-21T01:32:44;2.83;;;2.00;;
44130;SDS011;29792;48.726;9.248;2022-08-21T01:35:11;2.58;;;2.05;;
44130;SDS011;29792;48.726;9.248;2022-08-21T01:37:39;3.38;;;2.00;;
44130;SDS011;29792;48.726;9.248;2022-08-21T01:40:05;3.05;;;2.13;;
44130;SDS011;29792;48.726;9.248;2022-08-21T01:42:32;4.03;;;2.08;;
44130;SDS011;29792;48.726;9.248;2022-08-21T01:44:58;3.78;;;2.00;;
44130;SDS011;29792;48.726;9.248;2022-08-21T01:47:23;2.03;;;1.65;;
44130;SDS011;29792;48.726;9.248;2022-08-21T01:49:48;2.33;;;1.40;;
44130;SDS011;29792;48.726;9.248;2022-08-21T01:52:14;3.28;;;1.38;;
44130;SDS011;29792;48.726;9.248;2022-08-21T01:54:39;4.32;;;2.47;;
44130;SDS011;29792;48.726;9.248;2022-08-21T01:57:06;2.60;;;1.85;;
44130;SDS011;29792;48.726;9.248;2022-08-21T01:59:32;3.38;;;2.08;;
44130;SDS011;29792;48.726;9.248;2022-08-21T02:01:58;3.58;;;2.17;;
44130;SDS011;29792;48.726;9.248;2022-08-21T02:04:23;1.73;;;1.58;;
44130;SDS011;29792;48.726;9.248;2022-08-21T02:06:49;2.75;;;1.40;;
44130;SDS011;29792;48.726;9.248;2022-08-21T02:09:15;1.63;;;1.52;;
44130;SDS011;29792;48.726;9.248;2022-08-21T02:11:41;2.30;;;1.40;;
44130;SDS011;29792;48.726;9.248;2022-08-21T02:14:10;2.97;;;1.65;;
44130;SDS011;29792;48.726;9.248;2022-08-21T02:16:38;2.90;;;1.27;;
44130;SDS011;29792;48.726;9.248;2022-08-21T02:19:04;3.45;;;1.63;;
44130;SDS011;29792;48.726;9.248;2022-08-21T02:21:30;4.93;;;1.58;;
44130;SDS011;29792;48.726;9.248;2022-08-21T02:23:55;2.33;;;1.30;;
44130;SDS011;29792;48.726;9.248;2022-08-21T02:26:21;4.28;;;1.60;;
44130;SDS011;29792;48.726;9.248;2022-08-21T02:28:46;4.25;;;2.50;;
44130;SDS011;29792;48.726;9.248;2022-08-21T02:31:11;6.75;;;2.35;;
44130;SDS011;29792;48.726;9.248;2022-08-21T02:33:37;2.08;;;1.60;;
44130;SDS011;29792;48.726;9.248;2022-08-21T02:36:02;1.50;;;1.40;;
44130;SDS011;29792;48.726;9.248;2022-08-21T02:38:30;3.28;;;2.00;;
44130;SDS011;29792;48.726;9.248;2022-08-21T02:40:58;2.35;;;1.77;;
44130;SDS011;29792;48.726;9.248;2022-08-21T02:43:24;1.70;;;1.58;;
44130;SDS011;29792;48.726;9.248;2022-08-21T02:45:51;2.35;;;1.80;;
44130;SDS011;29792;48.726;9.248;2022-08-21T02:48:19;4.20;;;2.10;;
44130;SDS011;29792;48.726;9.248;2022-08-21T02:50:47;3.75;;;1.65;;
44130;SDS011;29792;48.726;9.248;2022-08-21T02:53:17;4.03;;;2.38;;
44130;SDS011;29792;48.726;9.248;2022-08-21T02:55:44;3.78;;;1.95;;
44130;SDS011;29792;48.726;9.248;2022-08-21T02:58:11;4.47;;;2.00;;
44130;SDS011;29792;48.726;9.248;2022-08-21T03:00:38;5.28;;;1.50;;
44130;SDS011;29792;48.726;9.248;2022-08-21T03:03:04;3.63;;;2.20;;
44130;SDS011;29792;48.726;9.248;2022-08-21T03:05:30;2.80;;;1.88;;
44130;SDS011;29792;48.726;9.248;2022-08-21T03:07:56;3.17;;;1.60;;
44130;SDS011;29792;48.726;9.248;2022-08-21T03:10:23;3.40;;;1.65;;
44130;SDS011;29792;48.726;9.248;2022-08-21T03:12:49;3.17;;;2.00;;
44130;SDS011;29792;48.726;9.248;2022-08-21T03:15:16;2.72;;;2.22;;
44130;SDS011;29792;48.726;9.248;2022-08-21T03:17:44;3.28;;;2.03;;
44130;SDS011;29792;48.726;9.248;2022-08-21T03:20:11;5.00;;;2.20;;
44130;SDS011;29792;48.726;9.248;2022-08-21T03:22:37;2.63;;;1.75;;
44130;SDS011;29792;48.726;9.248;2022-08-21T03:25:02;2.25;;;1.60;;
44130;SDS011;29792;48.726;9.248;2022-08-21T03:27:29;2.15;;;1.30;;
44130;SDS011;29792;48.726;9.248;2022-08-21T03:29:56;2.67;;;1.85;;
44130;SDS011;29792;48.726;9.248;2022-08-21T03:32:21;4.50;;;2.05;;
44130;SDS011;29792;48.726;9.248;2022-08-21T03:34:47;3.10;;;1.70;;
44130;SDS011;29792;48.726;9.248;2022-08-21T03:37:12;7.97;;;2.42;;
44130;SDS011;29792;48.726;9.248;2022-08-21T03:39:38;5.55;;;2.83;;
44130;SDS011;29792;48.726;9.248;2022-08-21T03:42:04;4.93;;;2.10;;
44130;SDS011;29792;48.726;9.248;2022-08-21T03:44:30;4.43;;;2.10;;
44130;SDS011;29792;48.726;9.248;2022-08-21T03:46:56;2.35;;;1.95;;
44130;SDS011;29792;48.726;9.248;2022-08-21T03:49:22;3.78;;;2.33;;
44130;SDS011;29792;48.726;9.248;2022-08-21T03:51:47;4.35;;;2.50;;
44130;SDS011;29792;48.726;9.248;2022-08-21T03:54:12;4.30;;;2.70;;
44130;SDS011;29792;48.726;9.248;2022-08-21T03:56:38;2.53;;;2.20;;
44130;SDS011;29792;48.726;9.248;2022-08-21T03:59:04;3.45;;;2.35;;
44130;SDS011;29792;48.726;9.248;2022-08-21T04:01:30;2.95;;;2.00;;
44130;SDS011;29792;48.726;9.248;2022-08-21T04:03:56;4.38;;;3.03;;
44130;SDS011;29792;48.726;9.248;2022-08-21T04:06:21;2.53;;;2.08;;
44130;SDS011;29792;48.726;9.248;2022-08-21T04:08:46;2.65;;;1.92;;
44130;SDS011;29792;48.726;9.248;2022-08-21T04:11:12;5.63;;;2.35;;
44130;SDS011;29792;48.726;9.248;2022-08-21T04:13:37;3.42;;;2.42;;
44130;SDS011;29792;48.726;9.248;2022-08-21T04:16:03;3.58;;;2.70;;
44130;SDS011;29792;48.726;9.248;2022-08-21T04:18:28;4.10;;;2.05;;
44130;SDS011;29792;48.726;9.248;2022-08-21T04:20:54;4.57;;;2.15;;
44130;SDS011;29792;48.726;9.248;2022-08-21T04:23:22;4.07;;;1.77;;
44130;SDS011;29792;48.726;9.248;2022-08-21T04:25:48;3.15;;;2.47;;
44130;SDS011;29792;48.726;9.248;2022-08-21T04:28:13;2.88;;;2.55;;
44130;SDS011;29792;48.726;9.248;2022-08-21T04:30:39;5.70;;;2.15;;
44130;SDS011;29792;48.726;9.248;2022-08-21T04:33:04;2.13;;;1.73;;
44130;SDS011;29792;48.726;9.248;2022-08-21T04:35:30;2.15;;;1.92;;
44130;SDS011;29792;48.726;9.248;2022-08-21T04:37:57;4.32;;;2.90;;
44130;SDS011;29792;48.726;9.248;2022-08-21T04:40:24;3.50;;;2.55;;
44130;SDS011;29792;48.726;9.248;2022-08-21T04:42:52;3.05;;;2.40;;
44130;SDS011;29792;48.726;9.248;2022-08-21T04:45:25;3.10;;;2.78;;
44130;SDS011;29792;48.726;9.248;2022-08-21T04:47:59;3.60;;;1.75;;
44130;SDS011;29792;48.726;9.248;2022-08-21T04:50:30;4.20;;;2.05;;
44130;SDS011;29792;48.726;9.248;2022-08-21T04:55:26;3.67;;;2.20;;
44130;SDS011;29792;48.726;9.248;2022-08-21T04:57:53;3.33;;;2.50;;
44130;SDS011;29792;48.726;9.248;2022-08-21T05:00:20;2.42;;;1.98;;
44130;SDS011;29792;48.726;9.248;2022-08-21T05:02:49;2.80;;;2.50;;
44130;SDS011;29792;48.726;9.248;2022-08-21T05:05:19;3.65;;;2.42;;
44130;SDS011;29792;48.726;9.248;2022-08-21T05:07:45;3.65;;;2.10;;
44130;SDS011;29792;48.726;9.248;2022-08-21T05:10:11;2.53;;;1.98;;
44130;SDS011;29792;48.726;9.248;2022-08-21T05:12:38;2.13;;;1.90;;
44130;SDS011;29792;48.726;9.248;2022-08-21T05:15:06;2.83;;;2.10;;
44130;SDS011;29792;48.726;9.248;2022-08-21T05:17:32;1.90;;;1.70;;
44130;SDS011;29792;48.726;9.248;2022-08-21T05:19:57;3.67;;;2.08;;
44130;SDS011;29792;48.726;9.248;2022-08-21T05:22:23;3.22;;;2.30;;
44130;SDS011;29792;48.726;9.248;2022-08-21T05:24:49;5.78;;;2.90;;
44130;SDS011;29792;48.726;9.248;2022-08-21T05:27:15;3.55;;;2.20;;
44130;SDS011;29792;48.726;9.248;2022-08-21T05:29:40;7.57;;;2.92;;
44130;SDS011;29792;48.726;9.248;2022-08-21T05:32:12;3.83;;;2.55;;
44130;SDS011;29792;48.726;9.248;2022-08-21T05:34:38;2.90;;;2.70;;
44130;SDS011;29792;48.726;9.248;2022-08-21T05:37:03;3.53;;;3.00;;
44130;SDS011;29792;48.726;9.248;2022-08-21T05:39:29;4.57;;;3.50;;
44130;SDS011;29792;48.726;9.248;2022-08-21T05:41:55;3.10;;;2.38;;
44130;SDS011;29792;48.726;9.248;2022-08-21T05:44:20;3.55;;;2.60;;
44130;SDS011;29792;48.726;9.248;2022-08-21T05:46:45;4.55;;;2.63;;
44130;SDS011;29792;48.726;9.248;2022-08-21T05:49:11;4.55;;;2.63;;
44130;SDS011;29792;48.726;9.248;2022-08-21T05:51:36;3.83;;;2.88;;
44130;SDS011;29792;48.726;9.248;2022-08-21T05:54:01;2.80;;;2.50;;
44130;SDS011;29792;48.726;9.248;2022-08-21T05:56:27;2.63;;;2.13;;
44130;SDS011;29792;48.726;9.248;2022-08-21T05:58:53;5.75;;;2.70;;
44130;SDS011;29792;48.726;9.248;2022-08-21T06:01:18;4.57;;;3.28;;
44130;SDS011;29792;48.726;9.248;2022-08-21T06:03:43;6.70;;;3.45;;
44130;SDS011;29792;48.726;9.248;2022-08-21T06:06:09;3.15;;;2.83;;
44130;SDS011;29792;48.726;9.248;2022-08-21T06:08:35;5.43;;;3.20;;
44130;SDS011;29792;48.726;9.248;2022-08-21T06:11:01;4.32;;;2.92;;
44130;SDS011;29792;48.726;9.248;2022-08-21T06:13:28;5.45;;;3.15;;
44130;SDS011;29792;48.726;9.248;2022-08-21T06:16:00;4.50;;;3.70;;
44130;SDS011;29792;48.726;9.248;2022-08-21T06:18:31;6.13;;;3.20;;
44130;SDS011;29792;48.726;9.248;2022-08-21T06:20:57;4.20;;;2.95;;
44130;SDS011;29792;48.726;9.248;2022-08-21T06:23:22;4.35;;;3.08;;
44130;SDS011;29792;48.726;9.248;2022-08-21T06:25:47;3.55;;;2.90;;
44130;SDS011;29792;48.726;9.248;2022-08-21T06:28:12;4.57;;;2.53;;
44130;SDS011;29792;48.726;9.248;2022-08-21T06:30:38;4.10;;;2.65;;
44130;SDS011;29792;48.726;9.248;2022-08-21T06:33:04;3.42;;;2.88;;
44130;SDS011;29792;48.726;9.248;2022-08-21T06:35:30;3.15;;;2.75;;
44130;SDS011;29792;48.726;9.248;2022-08-21T06:37:55;4.53;;;2.80;;
44130;SDS011;29792;48.726;9.248;2022-08-21T06:40:22;5.03;;;2.60;;
44130;SDS011;29792;48.726;9.248;2022-08-21T06:42:47;3.92;;;2.78;;
44130;SDS011;29792;48.726;9.248;2022-08-21T06:45:12;3.85;;;2.90;;
44130;SDS011;29792;48.726;9.248;2022-08-21T06:47:38;7.05;;;2.47;;
44130;SDS011;29792;48.726;9.248;2022-08-21T06:50:03;8.07;;;3.28;;
44130;SDS011;29792;48.726;9.248;2022-08-21T06:52:29;3.70;;;2.30;;
44130;SDS011;29792;48.726;9.248;2022-08-21T06:54:55;4.00;;;2.22;;
44130;SDS011;29792;48.726;9.248;2022-08-21T06:57:20;4.38;;;2.67;;
44130;SDS011;29792;48.726;9.248;2022-08-21T06:59:46;3.63;;;2.30;;
44130;SDS011;29792;48.726;9.248;2022-08-21T07:02:12;5.30;;;2.58;;
44130;SDS011;29792;48.726;9.248;2022-08-21T07:04:37;4.57;;;2.90;;
44130;SDS011;29792;48.726;9.248;2022-08-21T07:07:02;3.92;;;3.00;;
44130;SDS011;29792;48.726;9.248;2022-08-21T07:09:28;4.15;;;3.13;;
44130;SDS011;29792;48.726;9.248;2022-08-21T07:11:54;3.65;;;2.55;;
44130;SDS011;29792;48.726;9.248;2022-08-21T07:14:21;10.75;;;3.83;;
44130;SDS011;29792;48.726;9.248;2022-08-21T07:16:47;3.80;;;2.60;;
44130;SDS011;29792;48.726;9.248;2022-08-21T07:19:13;3.90;;;2.92;;
44130;SDS011;29792;48.726;9.248;2022-08-21T07:21:38;3.50;;;2.47;;
44130;SDS011;29792;48.726;9.248;2022-08-21T07:24:03;4.45;;;2.83;;
44130;SDS011;29792;48.726;9.248;2022-08-21T07:26:28;4.80;;;3.45;;
44130;SDS011;29792;48.726;9.248;2022-08-21T07:28:54;7.60;;;3.75;;
44130;SDS011;29792;48.726;9.248;2022-08-21T07:31:20;3.95;;;2.65;;
44130;SDS011;29792;48.726;9.248;2022-08-21T07:33:46;4.07;;;3.05;;
44130;SDS011;29792;48.726;9.248;2022-08-21T07:36:12;5.18;;;3.22;;
44130;SDS011;29792;48.726;9.248;2022-08-21T07:38:38;5.43;;;2.95;;
44130;SDS011;29792;48.726;9.248;2022-08-21T07:41:07;5.35;;;2.85;;
44130;SDS011;29792;48.726;9.248;2022-08-21T07:43:53;4.75;;;3.35;;
44130;SDS011;29792;48.726;9.248;2022-08-21T07:46:19;6.57;;;4.15;;
44130;SDS011;29792;48.726;9.248;2022-08-21T07:48:45;4.70;;;3.25;;
44130;SDS011;29792;48.726;9.248;2022-08-21T07:51:11;3.33;;;2.97;;
44130;SDS011;29792;48.726;9.248;2022-08-21T07:53:38;4.22;;;2.85;;
44130;SDS011;29792;48.726;9.248;2022-08-21T07:56:04;5.45;;;3.30;;
44130;SDS011;29792;48.726;9.248;2022-08-21T07:58:31;6.25;;;3.47;;
44130;SDS011;29792;48.726;9.248;2022-08-21T08:00:56;3.55;;;2.78;;
44130;SDS011;29792;48.726;9.248;2022-08-21T08:03:22;2.78;;;2.50;;
44130;SDS011;29792;48.726;9.248;2022-08-21T08:05:47;2.95;;;2.60;;
44130;SDS011;29792;48.726;9.248;2022-08-21T08:08:12;8.43;;;3.30;;
44130;SDS011;29792;48.726;9.248;2022-08-21T08:10:38;3.72;;;2.92;;
44130;SDS011;29792;48.726;9.248;2022-08-21T08:13:04;4.13;;;2.33;;
44130;SDS011;29792;48.726;9.248;2022-08-21T08:15:29;3.97;;;2.50;;
44130;SDS011;29792;48.726;9.248;2022-08-21T08:17:55;5.25;;;3.33;;
44130;SDS011;29792;48.726;9.248;2022-08-21T08:20:21;5.90;;;3.33;;
44130;SDS011;29792;48.726;9.248;2022-08-21T08:22:48;5.47;;;3.38;;
44130;SDS011;29792;48.726;9.248;2022-08-21T08:25:14;5.72;;;3.28;;
44130;SDS011;29792;48.726;9.248;2022-08-21T08:27:40;5.53;;;3.10;;
44130;SDS011;29792;48.726;9.248;2022-08-21T08:30:07;3.20;;;2.30;;
44130;SDS011;29792;48.726;9.248;2022-08-21T08:32:34;4.00;;;2.83;;
44130;SDS011;29792;48.726;9.248;2022-08-21T08:34:59;4.35;;;2.35;;
44130;SDS011;29792;48.726;9.248;2022-08-21T08:37:24;4.07;;;2.20;;
44130;SDS011;29792;48.726;9.248;2022-08-21T08:39:50;4.20;;;3.03;;
44130;SDS011;29792;48.726;9.248;2022-08-21T08:42:25;3.72;;;2.97;;
44130;SDS011;29792;48.726;9.248;2022-08-21T08:47:34;8.52;;;3.13;;
44130;SDS011;29792;48.726;9.248;2022-08-21T08:50:18;6.30;;;4.32;;
44130;SDS011;29792;48.726;9.248;2022-08-21T08:56:05;4.47;;;3.10;;
44130;SDS011;29792;48.726;9.248;2022-08-21T08:58:32;6.00;;;3.65;;
44130;SDS011;29792;48.726;9.248;2022-08-21T09:01:00;4.18;;;2.78;;
44130;SDS011;29792;48.726;9.248;2022-08-21T09:03:28;3.88;;;2.88;;
44130;SDS011;29792;48.726;9.248;2022-08-21T09:05:56;4.22;;;2.55;;
44130;SDS011;29792;48.726;9.248;2022-08-21T09:11:21;4.55;;;2.47;;
44130;SDS011;29792;48.726;9.248;2022-08-21T09:14:10;3.53;;;2.42;;
44130;SDS011;29792;48.726;9.248;2022-08-21T09:16:47;4.38;;;2.47;;
44130;SDS011;29792;48.726;9.248;2022-08-21T09:22:44;5.72;;;3.22;;
44130;SDS011;29792;48.726;9.248;2022-08-21T09:25:24;5.47;;;2.30;;
44130;SDS011;29792;48.726;9.248;2022-08-21T09:27:53;3.13;;;2.85;;
44130;SDS011;29792;48.726;9.248;2022-08-21T09:30:19;3.40;;;2.15;;
44130;SDS011;29792;48.726;9.248;2022-08-21T09:32:50;5.47;;;2.67;;
44130;SDS011;29792;48.726;9.248;2022-08-21T09:35:16;3.72;;;2.20;;
44130;SDS011;29792;48.726;9.248;2022-08-21T09:42:59;3.88;;;1.98;;
44130;SDS011;29792;48.726;9.248;2022-08-21T09:45:27;3.83;;;2.20;;
44130;SDS011;29792;48.726;9.248;2022-08-21T09:47:53;3.38;;;2.13;;
44130;SDS011;29792;48.726;9.248;2022-08-21T09:50:24;7.40;;;3.13;;
44130;SDS011;29792;48.726;9.248;2022-08-21T09:52:52;2.70;;;1.73;;
44130;SDS011;29792;48.726;9.248;2022-08-21T09:56:16;3.88;;;2.33;;
44130;SDS011;29792;48.726;9.248;2022-08-21T09:58:35;3.00;;;1.90;;
44130;SDS011;29792;48.726;9.248;2022-08-21T10:01:03;3.50;;;2.10;;
44130;SDS011;29792;48.726;9.248;2022-08-21T10:03:30;2.50;;;1.92;;
44130;SDS011;29792;48.726;9.248;2022-08-21T10:05:58;4.45;;;1.70;;
44130;SDS011;29792;48.726;9.248;2022-08-21T10:08:26;3.88;;;1.92;;
44130;SDS011;29792;48.726;9.248;2022-08-21T10:11:12;2.75;;;1.88;;
44130;SDS011;29792;48.726;9.248;2022-08-21T10:16:15;3.40;;;2.47;;
44130;SDS011;29792;48.726;9.248;2022-08-21T10:21:31;2.72;;;1.70;;
44130;SDS011;29792;48.726;9.248;2022-08-21T10:24:25;4.63;;;2.42;;
44130;SDS011;29792;48.726;9.248;2022-08-21T10:27:01;2.88;;;1.65;;
44130;SDS011;29792;48.726;9.248;2022-08-21T10:29:43;6.30;;;2.58;;
44130;SDS011;29792;48.726;9.248;2022-08-21T10:40:37;3.22;;;1.73;;
44130;SDS011;29792;48.726;9.248;2022-08-21T10:46:07;3.38;;;1.98;;
44130;SDS011;29792;48.726;9.248;2022-08-21T10:48:54;5.38;;;2.22;;
44130;SDS011;29792;48.726;9.248;2022-08-21T10:51:42;3.95;;;2.17;;
44130;SDS011;29792;48.726;9.248;2022-08-21T10:57:05;3.33;;;2.05;;
44130;SDS011;29792;48.726;9.248;2022-08-21T10:59:39;7.22;;;3.88;;
44130;SDS011;29792;48.726;9.248;2022-08-21T11:02:13;6.18;;;3.03;;
44130;SDS011;29792;48.726;9.248;2022-08-21T11:04:53;2.88;;;1.90;;
44130;SDS011;29792;48.726;9.248;2022-08-21T11:07:25;8.98;;;2.33;;
44130;SDS011;29792;48.726;9.248;2022-08-21T11:09:54;2.20;;;1.85;;
44130;SDS011;29792;48.726;9.248;2022-08-21T11:12:28;2.58;;;1.50;;
44130;SDS011;29792;48.726;9.248;2022-08-21T11:17:52;3.78;;;1.67;;
44130;SDS011;29792;48.726;9.248;2022-08-21T11:20:34;3.70;;;1.58;;
44130;SDS011;29792;48.726;9.248;2022-08-21T11:25:48;4.07;;;1.95;;
44130;SDS011;29792;48.726;9.248;2022-08-21T11:28:22;3.88;;;1.38;;
44130;SDS011;29792;48.726;9.248;2022-08-21T11:31:01;4.32;;;2.17;;
44130;SDS011;29792;48.726;9.248;2022-08-21T11:33:44;3.25;;;1.58;;
44130;SDS011;29792;48.726;9.248;2022-08-21T11:39:02;4.00;;;1.75;;
44130;SDS011;29792;48.726;9.248;2022-08-21T11:44:36;4.38;;;2.45;;
44130;SDS011;29792;48.726;9.248;2022-08-21T11:47:06;5.97;;;2.22;;
44130;SDS011;29792;48.726;9.248;2022-08-21T11:52:30;2.97;;;1.92;;
44130;SDS011;29792;48.726;9.248;2022-08-21T11:55:03;3.50;;;1.92;;
44130;SDS011;29792;48.726;9.248;2022-08-21T11:58:21;2.95;;;1.67;;
44130;SDS011;29792;48.726;9.248;2022-08-21T12:00:30;3.33;;;2.75;;
44130;SDS011;29792;48.726;9.248;2022-08-21T12:03:06;3.60;;;1.63;;
44130;SDS011;29792;48.726;9.248;2022-08-21T12:05:51;4.75;;;2.75;;
44130;SDS011;29792;48.726;9.248;2022-08-21T12:08:27;3.05;;;1.85;;
44130;SDS011;29792;48.726;9.248;2022-08-21T12:11:01;3.58;;;1.88;;
44130;SDS011;29792;48.726;9.248;2022-08-21T12:13:32;3.33;;;2.10;;
44130;SDS011;29792;48.726;9.248;2022-08-21T12:16:10;2.70;;;1.75;;
44130;SDS011;29792;48.726;9.248;2022-08-21T12:18:40;2.92;;;2.25;;
44130;SDS011;29792;48.726;9.248;2022-08-21T12:21:25;2.42;;;1.23;;
44130;SDS011;29792;48.726;9.248;2022-08-21T12:24:00;3.17;;;1.90;;
44130;SDS011;29792;48.726;9.248;2022-08-21T12:26:33;3.28;;;1.63;;
44130;SDS011;29792;48.726;9.248;2022-08-21T12:29:09;2.67;;;1.33;;
44130;SDS011;29792;48.726;9.248;2022-08-21T12:31:48;5.85;;;2.33;;
44130;SDS011;29792;48.726;9.248;2022-08-21T12:34:18;4.45;;;2.10;;
44130;SDS011;29792;48.726;9.248;2022-08-21T12:36:48;4.93;;;1.95;;
44130;SDS011;29792;48.726;9.248;2022-08-21T12:39:22;2.08;;;1.17;;
44130;SDS011;29792;48.726;9.248;2022-08-21T12:42:10;3.40;;;2.00;;
44130;SDS011;29792;48.726;9.248;2022-08-21T12:44:43;3.42;;;2.08;;
44130;SDS011;29792;48.726;9.248;2022-08-21T12:50:23;3.15;;;1.70;;
44130;SDS011;29792;48.726;9.248;2022-08-21T12:52:59;2.28;;;1.25;;
44130;SDS011;29792;48.726;9.248;2022-08-21T12:55:31;3.05;;;1.65;;
44130;SDS011;29792;48.726;9.248;2022-08-21T12:57:58;2.55;;;1.60;;
44130;SDS011;29792;48.726;9.248;2022-08-21T13:00:26;2.72;;;1.30;;
44130;SDS011;29792;48.726;9.248;2022-08-21T13:02:53;2.75;;;1.95;;
44130;SDS011;29792;48.726;9.248;2022-08-21T13:05:32;4.80;;;1.83;;
44130;SDS011;29792;48.726;9.248;2022-08-21T13:08:02;3.67;;;2.33;;
44130;SDS011;29792;48.726;9.248;2022-08-21T13:10:30;1.88;;;1.40;;
44130;SDS011;29792;48.726;9.248;2022-08-21T13:12:59;3.78;;;1.27;;
44130;SDS011;29792;48.726;9.248;2022-08-21T13:15:29;2.03;;;1.20;;
44130;SDS011;29792;48.726;9.248;2022-08-21T13:17:56;3.45;;;2.95;;
44130;SDS011;29792;48.726;9.248;2022-08-21T13:20:31;2.25;;;1.80;;
44130;SDS011;29792;48.726;9.248;2022-08-21T13:22:59;1.85;;;1.45;;
44130;SDS011;29792;48.726;9.248;2022-08-21T13:25:27;2.45;;;1.30;;
44130;SDS011;29792;48.726;9.248;2022-08-21T13:28:06;3.10;;;1.77;;
44130;SDS011;29792;48.726;9.248;2022-08-21T13:30:34;7.95;;;2.17;;
44130;SDS011;29792;48.726;9.248;2022-08-21T13:33:04;1.45;;;1.13;;
44130;SDS011;29792;48.726;9.248;2022-08-21T13:35:35;4.00;;;2.30;;
44130;SDS011;29792;48.726;9.248;2022-08-21T13:38:13;3.58;;;1.60;;
44130;SDS011;29792;48.726;9.248;2022-08-21T13:40:44;1.48;;;1.25;;
44130;SDS011;29792;48.726;9.248;2022-08-21T13:45:43;3.03;;;1.75;;
44130;SDS011;29792;48.726;9.248;2022-08-21T13:48:09;3.20;;;1.75;;
44130;SDS011;29792;48.726;9.248;2022-08-21T13:50:35;4.43;;;1.52;;
44130;SDS011;29792;48.726;9.248;2022-08-21T13:53:04;3.03;;;1.60;;
44130;SDS011;29792;48.726;9.248;2022-08-21T13:55:41;3.33;;;1.52;;
44130;SDS011;29792;48.726;9.248;2022-08-21T13:58:09;4.65;;;1.83;;
44130;SDS011;29792;48.726;9.248;2022-08-21T14:00:44;3.17;;;1.40;;
44130;SDS011;29792;48.726;9.248;2022-08-21T14:03:12;4.05;;;1.52;;
44130;SDS011;29792;48.726;9.248;2022-08-21T14:05:50;3.08;;;1.15;;
44130;SDS011;29792;48.726;9.248;2022-08-21T14:08:25;1.40;;;1.20;;
44130;SDS011;29792;48.726;9.248;2022-08-21T14:10:59;3.45;;;1.50;;
44130;SDS011;29792;48.726;9.248;2022-08-21T14:16:12;1.58;;;1.42;;
44130;SDS011;29792;48.726;9.248;2022-08-21T14:21:34;2.38;;;1.23;;
44130;SDS011;29792;48.726;9.248;2022-08-21T14:26:53;1.92;;;1.33;;
44130;SDS011;29792;48.726;9.248;2022-08-21T14:29:22;3.92;;;1.58;;
44130;SDS011;29792;48.726;9.248;2022-08-21T14:31:51;5.10;;;2.67;;
44130;SDS011;29792;48.726;9.248;2022-08-21T14:34:22;3.70;;;2.33;;
44130;SDS011;29792;48.726;9.248;2022-08-21T14:36:49;5.93;;;3.00;;
44130;SDS011;29792;48.726;9.248;2022-08-21T14:39:15;2.72;;;1.40;;
44130;SDS011;29792;48.726;9.248;2022-08-21T14:41:41;2.80;;;2.05;;
44130;SDS011;29792;48.726;9.248;2022-08-21T14:44:07;2.63;;;1.52;;
44130;SDS011;29792;48.726;9.248;2022-08-21T14:46:33;8.80;;;2.38;;
44130;SDS011;29792;48.726;9.248;2022-08-21T14:49:01;3.75;;;1.83;;
44130;SDS011;29792;48.726;9.248;2022-08-21T14:51:28;3.42;;;1.73;;
44130;SDS011;29792;48.726;9.248;2022-08-21T14:53:53;4.93;;;1.90;;
44130;SDS011;29792;48.726;9.248;2022-08-21T14:56:18;3.65;;;2.22;;
44130;SDS011;29792;48.726;9.248;2022-08-21T14:58:45;2.90;;;1.75;;
44130;SDS011;29792;48.726;9.248;2022-08-21T15:01:14;2.03;;;1.48;;
44130;SDS011;29792;48.726;9.248;2022-08-21T15:03:43;4.10;;;2.08;;
44130;SDS011;29792;48.726;9.248;2022-08-21T15:06:09;2.65;;;1.70;;
44130;SDS011;29792;48.726;9.248;2022-08-21T15:08:35;4.55;;;2.28;;
44130;SDS011;29792;48.726;9.248;2022-08-21T15:11:01;4.60;;;1.55;;
44130;SDS011;29792;48.726;9.248;2022-08-21T15:13:28;2.78;;;1.88;;
44130;SDS011;29792;48.726;9.248;2022-08-21T15:15:53;2.42;;;2.00;;
44130;SDS011;29792;48.726;9.248;2022-08-21T15:18:20;2.33;;;1.40;;
44130;SDS011;29792;48.726;9.248;2022-08-21T15:20:46;3.13;;;1.58;;
44130;SDS011;29792;48.726;9.248;2022-08-21T15:23:12;6.47;;;2.05;;
44130;SDS011;29792;48.726;9.248;2022-08-21T15:25:39;3.33;;;2.33;;
44130;SDS011;29792;48.726;9.248;2022-08-21T15:28:06;2.17;;;1.50;;
44130;SDS011;29792;48.726;9.248;2022-08-21T15:30:32;2.28;;;1.45;;
44130;SDS011;29792;48.726;9.248;2022-08-21T15:32:58;3.75;;;1.60;;
44130;SDS011;29792;48.726;9.248;2022-08-21T15:35:24;3.40;;;2.10;;
44130;SDS011;29792;48.726;9.248;2022-08-21T15:37:49;3.65;;;1.42;;
44130;SDS011;29792;48.726;9.248;2022-08-21T15:40:15;4.03;;;1.80;;
44130;SDS011;29792;48.726;9.248;2022-08-21T15:42:41;2.47;;;1.70;;
44130;SDS011;29792;48.726;9.248;2022-08-21T15:45:08;5.22;;;1.85;;
44130;SDS011;29792;48.726;9.248;2022-08-21T15:47:36;2.80;;;1.45;;
44130;SDS011;29792;48.726;9.248;2022-08-21T15:50:03;2.40;;;1.40;;
44130;SDS011;29792;48.726;9.248;2022-08-21T15:52:30;3.13;;;1.30;;
44130;SDS011;29792;48.726;9.248;2022-08-21T15:54:56;2.97;;;1.50;;
44130;SDS011;29792;48.726;9.248;2022-08-21T15:57:22;1.90;;;1.20;;
44130;SDS011;29792;48.726;9.248;2022-08-21T15:59:52;2.88;;;1.50;;
44130;SDS011;29792;48.726;9.248;2022-08-21T16:02:22;3.03;;;1.73;;
44130;SDS011;29792;48.726;9.248;2022-08-21T16:04:49;4.40;;;1.95;;
44130;SDS011;29792;48.726;9.248;2022-08-21T16:07:14;3.80;;;1.67;;